createdAt,value
2019-04-16T00:02:44.434Z,4.71
2019-04-16T00:05:27.487Z,4.64
2019-04-16T00:08:02.265Z,4.51
2019-04-16T00:10:56.830Z,4.38
2019-04-16T00:13:39.353Z,4.42
2019-04-16T00:16:12.671Z,4.45
2019-04-16T00:18:40.788Z,4.55
2019-04-16T00:21:22.735Z,4.58
2019-04-16T00:24:20.765Z,4.56
2019-04-16T00:26:58.074Z,4.53
2019-04-16T00:29:25.094Z,4.44
2019-04-16T00:31:58.058Z,4.32
2019-04-16T00:34:27.375Z,4.22
2019-04-16T00:36:59.354Z,4.09
2019-04-16T00:39:29.414Z,3.98
2019-04-16T00:41:59.131Z,3.91
2019-04-16T00:44:30.289Z,3.87
2019-04-16T00:46:59.723Z,3.78
2019-04-16T00:49:29.131Z,3.68
2019-04-16T00:51:58.522Z,3.58
2019-04-16T00:54:27.852Z,3.48
2019-04-16T00:56:57.135Z,3.35
2019-04-16T00:59:27.486Z,3.21
2019-04-16T01:01:57.092Z,3.10
2019-04-16T01:04:26.657Z,2.99
2019-04-16T01:06:56.295Z,2.90
2019-04-16T01:09:25.865Z,2.88
2019-04-16T01:11:55.529Z,2.85
2019-04-16T01:14:26.761Z,2.79
2019-04-16T01:16:56.104Z,2.73
2019-04-16T01:19:25.477Z,2.69
2019-04-16T01:21:54.772Z,2.65
2019-04-16T01:24:24.009Z,2.62
2019-04-16T01:26:55.372Z,2.64
2019-04-16T01:29:24.430Z,2.62
2019-04-16T01:32:12.069Z,2.59
2019-04-16T01:34:51.280Z,2.58
2019-04-16T01:37:41.610Z,2.58
2019-04-16T01:40:11.795Z,2.55
2019-04-16T01:42:41.113Z,2.55
2019-04-16T01:45:10.433Z,2.56
2019-04-16T01:47:39.743Z,2.54
2019-04-16T01:50:12.925Z,2.52
2019-04-16T01:52:40.138Z,2.53
2019-04-16T01:55:09.492Z,2.51
2019-04-16T01:57:39.333Z,2.47
2019-04-16T02:00:09.505Z,2.45
2019-04-16T02:02:38.742Z,2.45
2019-04-16T02:05:08.302Z,2.46
2019-04-16T02:07:37.727Z,2.43
2019-04-16T02:10:08.000Z,2.39
2019-04-16T02:12:37.503Z,2.40
2019-04-16T02:15:07.680Z,2.38
2019-04-16T02:17:37.061Z,2.41
2019-04-16T02:20:07.408Z,2.40
2019-04-16T02:22:36.961Z,2.39
2019-04-16T02:25:07.262Z,2.34
2019-04-16T02:27:37.971Z,2.30
2019-04-16T02:30:07.401Z,2.28
2019-04-16T02:32:36.720Z,2.31
2019-04-16T02:35:06.800Z,2.32
2019-04-16T02:37:37.647Z,2.29
2019-04-16T02:40:07.171Z,2.24
2019-04-16T02:42:36.988Z,2.18
2019-04-16T02:45:06.483Z,2.19
2019-04-16T02:47:39.682Z,2.20
2019-04-16T02:50:09.739Z,2.14
2019-04-16T02:53:01.120Z,2.10
2019-04-16T02:55:42.581Z,2.09
2019-04-16T02:58:34.027Z,2.04
2019-04-16T03:01:20.875Z,2.04
2019-04-16T03:03:56.565Z,2.14
2019-04-16T03:06:25.912Z,2.18
2019-04-16T03:08:55.362Z,2.20
2019-04-16T03:11:24.688Z,2.25
2019-04-16T03:13:58.251Z,2.30
2019-04-16T03:16:48.065Z,2.28
2019-04-16T03:19:21.287Z,2.25
2019-04-16T03:21:50.561Z,2.21
2019-04-16T03:24:19.989Z,2.19
2019-04-16T03:26:50.425Z,2.17
2019-04-16T03:29:20.596Z,2.16
2019-04-16T03:31:57.529Z,2.13
2019-04-16T03:34:22.108Z,2.14
2019-04-16T03:36:52.175Z,2.16
2019-04-16T03:39:21.466Z,2.10
2019-04-16T03:41:55.963Z,2.03
2019-04-16T03:44:21.950Z,1.92
2019-04-16T03:46:51.291Z,1.83
2019-04-16T03:49:20.872Z,1.77
2019-04-16T03:51:50.233Z,1.75
2019-04-16T03:54:22.430Z,1.75
2019-04-16T03:56:50.514Z,1.75
2019-04-16T03:59:19.852Z,1.74
2019-04-16T04:01:49.562Z,1.74
2019-04-16T04:04:18.950Z,1.74
2019-04-16T04:06:48.268Z,1.73
2019-04-16T04:09:18.836Z,1.75
2019-04-16T04:11:48.709Z,1.77
2019-04-16T04:14:22.118Z,1.74
2019-04-16T04:16:49.176Z,1.70
2019-04-16T04:19:18.500Z,1.68
2019-04-16T04:21:50.585Z,1.67
2019-04-16T04:24:19.012Z,1.71
2019-04-16T04:26:48.722Z,1.70
2019-04-16T04:29:20.742Z,1.67
2019-04-16T04:31:49.170Z,1.69
2019-04-16T04:34:18.798Z,1.71
2019-04-16T04:36:48.467Z,1.69
2019-04-16T04:39:18.040Z,1.70
2019-04-16T04:41:47.435Z,1.69
2019-04-16T04:44:18.632Z,1.67
2019-04-16T04:46:47.969Z,1.68
2019-04-16T04:49:17.666Z,1.74
2019-04-16T04:51:47.367Z,1.75
2019-04-16T04:54:22.818Z,1.82
2019-04-16T04:56:50.667Z,1.90
2019-04-16T04:59:20.082Z,1.96
2019-04-16T05:01:49.498Z,2.01
2019-04-16T05:04:36.194Z,2.06
2019-04-16T05:07:07.579Z,2.13
2019-04-16T05:09:36.966Z,2.25
2019-04-16T05:12:08.345Z,2.44
2019-04-16T05:14:40.989Z,2.51
2019-04-16T05:17:10.329Z,2.58
2019-04-16T05:19:39.659Z,2.59
2019-04-16T05:22:09.347Z,2.70
2019-04-16T05:24:38.945Z,2.86
2019-04-16T05:27:09.369Z,3.12
2019-04-16T05:29:38.787Z,3.35
2019-04-16T05:32:08.121Z,3.39
2019-04-16T05:34:38.465Z,3.43
2019-04-16T05:37:07.998Z,3.62
2019-04-16T05:39:37.385Z,3.74
2019-04-16T05:42:06.833Z,3.72
2019-04-16T05:44:36.182Z,3.76
2019-04-16T05:47:05.550Z,3.91
2019-04-16T05:49:34.933Z,3.98
2019-04-16T05:52:05.324Z,4.04
2019-04-16T05:54:53.648Z,4.13
2019-04-16T05:57:27.828Z,4.30
2019-04-16T05:59:57.087Z,4.35
2019-04-16T06:02:51.467Z,4.39
2019-04-16T06:05:21.016Z,4.42
2019-04-16T06:07:50.348Z,4.66
2019-04-16T06:10:19.911Z,4.84
2019-04-16T06:13:11.987Z,5.03
2019-04-16T06:15:46.395Z,5.10
2019-04-16T06:18:49.689Z,5.27
2019-04-16T06:21:40.467Z,5.39
2019-04-16T06:24:21.317Z,5.54
2019-04-16T06:27:08.494Z,5.66
2019-04-16T06:29:48.074Z,5.66
2019-04-16T06:32:28.106Z,5.93
2019-04-16T06:35:25.168Z,6.11
2019-04-16T06:38:04.510Z,6.30
2019-04-16T06:40:47.488Z,6.57
2019-04-16T06:43:25.229Z,6.69
2019-04-16T06:46:13.793Z,6.99
2019-04-16T06:48:58.914Z,7.14
2019-04-16T06:51:43.592Z,7.17
2019-04-16T06:54:46.283Z,7.26
2019-04-16T06:57:43.884Z,7.36
2019-04-16T07:00:44.323Z,7.44
2019-04-16T07:03:38.474Z,7.57
2019-04-16T07:06:35.923Z,7.65
2019-04-16T07:09:25.784Z,7.82
2019-04-16T07:11:55.850Z,7.96
2019-04-16T07:14:25.236Z,8.03
2019-04-16T07:16:54.492Z,8.09
2019-04-16T07:19:25.438Z,8.40
2019-04-16T07:21:54.764Z,8.55
2019-04-16T07:24:30.112Z,8.62
2019-04-16T07:26:56.649Z,8.57
2019-04-16T07:29:32.673Z,8.68
2019-04-16T07:32:32.113Z,8.77
2019-04-16T07:35:18.993Z,8.88
2019-04-16T07:38:07.453Z,8.97
2019-04-16T07:40:54.537Z,9.01
2019-04-16T07:43:41.449Z,9.03
2019-04-16T07:46:38.880Z,9.16
2019-04-16T07:49:18.473Z,9.30
2019-04-16T07:52:07.266Z,9.39
2019-04-16T07:54:54.032Z,9.36
2019-04-16T07:57:23.411Z,9.51
2019-04-16T07:59:52.717Z,9.63
2019-04-16T08:02:22.494Z,9.75
2019-04-16T08:04:51.874Z,9.77
2019-04-16T08:07:21.413Z,9.85
2019-04-16T08:09:50.677Z,9.90
2019-04-16T08:12:30.045Z,10.06
2019-04-16T08:14:51.129Z,10.17
2019-04-16T08:17:20.979Z,10.27
2019-04-16T08:19:50.278Z,10.42
2019-04-16T08:22:19.702Z,10.69
2019-04-16T08:24:57.607Z,10.87
2019-04-16T08:27:24.387Z,10.93
2019-04-16T08:29:53.820Z,10.92
2019-04-16T08:32:25.759Z,11.01
2019-04-16T08:34:54.215Z,11.23
2019-04-16T08:37:23.549Z,11.33
2019-04-16T08:39:52.900Z,11.39
2019-04-16T08:42:25.231Z,11.53
2019-04-16T08:44:53.151Z,11.66
2019-04-16T08:47:22.410Z,11.82
2019-04-16T08:49:54.144Z,11.91
2019-04-16T08:52:23.007Z,12.00
2019-04-16T08:54:54.870Z,12.15
2019-04-16T08:57:23.436Z,12.22
2019-04-16T08:59:52.692Z,12.20
2019-04-16T09:02:23.504Z,12.36
2019-04-16T09:04:52.970Z,12.29
2019-04-16T09:07:40.462Z,12.39
2019-04-16T09:10:19.091Z,12.42
2019-04-16T09:12:47.603Z,12.55
2019-04-16T09:15:22.607Z,12.47
2019-04-16T09:18:00.392Z,12.45
2019-04-16T09:20:38.553Z,12.60
2019-04-16T09:23:07.874Z,12.69
2019-04-16T09:25:46.681Z,12.82
2019-04-16T09:28:25.820Z,12.83
2019-04-16T09:31:08.663Z,12.98
2019-04-16T09:33:59.051Z,13.10
2019-04-16T09:36:40.756Z,13.20
2019-04-16T09:39:34.889Z,13.26
2019-04-16T09:42:04.411Z,13.25
2019-04-16T09:44:35.525Z,13.18
2019-04-16T09:47:05.372Z,13.41
2019-04-16T09:49:37.613Z,13.52
2019-04-16T09:52:06.015Z,13.62
2019-04-16T09:54:35.539Z,13.49
2019-04-16T09:57:05.004Z,13.65
2019-04-16T09:59:47.659Z,13.77
2019-04-16T10:02:24.008Z,13.81
2019-04-16T10:04:53.378Z,13.90
2019-04-16T10:07:22.680Z,13.94
2019-04-16T10:09:54.501Z,14.15
2019-04-16T10:12:23.186Z,14.19
2019-04-16T10:14:52.442Z,14.25
2019-04-16T10:17:21.802Z,14.37
2019-04-16T10:19:51.093Z,14.32
2019-04-16T10:22:21.810Z,14.41
2019-04-16T10:25:05.324Z,14.51
2019-04-16T10:27:45.730Z,14.61
2019-04-16T10:30:23.712Z,14.66
2019-04-16T10:32:52.962Z,14.77
2019-04-16T10:35:22.713Z,14.98
2019-04-16T10:37:52.040Z,15.04
2019-04-16T10:40:38.400Z,14.96
2019-04-16T10:43:25.280Z,15.00
2019-04-16T10:46:25.560Z,14.95
2019-04-16T10:49:16.786Z,14.98
2019-04-16T10:52:04.920Z,15.05
2019-04-16T10:54:41.880Z,15.14
2019-04-16T10:57:28.643Z,15.28
2019-04-16T11:00:25.631Z,15.39
2019-04-16T11:03:03.022Z,15.36
2019-04-16T11:05:42.875Z,15.44
2019-04-16T11:08:12.990Z,15.59
2019-04-16T11:10:42.235Z,15.82
2019-04-16T11:13:16.730Z,15.95
2019-04-16T11:15:46.023Z,16.20
2019-04-16T11:18:15.258Z,16.34
2019-04-16T11:20:44.665Z,16.55
2019-04-16T11:23:14.045Z,16.56
2019-04-16T11:25:43.211Z,16.59
2019-04-16T11:28:14.268Z,16.66
2019-04-16T11:30:48.735Z,16.76
2019-04-16T11:33:17.677Z,17.01
2019-04-16T11:35:46.941Z,17.24
2019-04-16T11:38:17.664Z,17.41
2019-04-16T11:40:47.313Z,17.46
2019-04-16T11:43:16.713Z,17.63
2019-04-16T11:45:46.111Z,17.78
2019-04-16T11:48:15.407Z,17.69
2019-04-16T11:50:44.843Z,17.19
2019-04-16T11:53:14.560Z,17.36
2019-04-16T11:55:44.030Z,17.61
2019-04-16T11:58:36.953Z,17.77
2019-04-16T12:01:16.899Z,18.02
2019-04-16T12:04:02.612Z,18.07
2019-04-16T12:06:42.122Z,18.42
2019-04-16T12:09:28.700Z,18.62
2019-04-16T12:12:03.071Z,18.60
2019-04-16T12:14:59.160Z,18.98
2019-04-16T12:17:36.309Z,19.18
2019-04-16T12:20:32.526Z,18.95
2019-04-16T12:23:08.426Z,18.88
2019-04-16T12:25:44.713Z,19.27
2019-04-16T12:28:27.469Z,19.66
2019-04-16T12:31:11.637Z,19.54
2019-04-16T12:33:52.302Z,19.86
2019-04-16T12:36:32.412Z,20.09
2019-04-16T12:39:19.567Z,20.11
2019-04-16T12:42:16.298Z,20.11
2019-04-16T12:44:51.782Z,20.44
2019-04-16T12:47:52.157Z,20.42
2019-04-16T12:50:43.461Z,20.67
2019-04-16T12:53:36.175Z,20.73
2019-04-16T12:56:24.636Z,20.79
2019-04-16T12:59:12.974Z,21.24
2019-04-16T13:02:14.330Z,23.83
2019-04-16T13:05:08.599Z,26.38
2019-04-16T13:07:51.239Z,28.05
2019-04-16T13:10:33.065Z,28.82
2019-04-16T13:13:13.437Z,29.37
2019-04-16T13:15:50.461Z,29.96
2019-04-16T13:18:24.003Z,29.70
2019-04-16T13:21:21.404Z,29.93
2019-04-16T13:24:12.581Z,30.59
2019-04-16T13:26:59.196Z,30.71
2019-04-16T13:29:30.691Z,31.86
2019-04-16T13:32:00.043Z,33.36
2019-04-16T13:34:29.446Z,34.82
2019-04-16T13:36:59.680Z,35.51
2019-04-16T13:39:46.468Z,35.04
2019-04-16T13:42:15.808Z,35.21
2019-04-16T13:44:55.551Z,35.83
2019-04-16T13:47:24.958Z,36.65
2019-04-16T13:50:04.224Z,36.43
2019-04-16T13:52:33.353Z,36.92
2019-04-16T13:55:17.693Z,37.24
2019-04-16T13:58:02.219Z,35.88
2019-04-16T14:00:37.136Z,36.71
2019-04-16T14:03:12.106Z,36.93
2019-04-16T14:05:42.763Z,36.91
2019-04-16T14:08:12.158Z,36.65
2019-04-16T14:10:43.357Z,37.02
2019-04-16T14:13:13.732Z,36.47
2019-04-16T14:15:44.862Z,36.72
2019-04-16T14:18:14.271Z,37.19
2019-04-16T14:20:43.689Z,37.82
2019-04-16T14:23:12.948Z,36.54
2019-04-16T14:25:42.725Z,35.97
2019-04-16T14:28:12.431Z,36.13
2019-04-16T14:30:45.713Z,36.90
2019-04-16T14:33:19.238Z,36.98
2019-04-16T14:35:48.642Z,36.94
2019-04-16T14:38:23.134Z,37.64
2019-04-16T14:40:52.458Z,37.24
2019-04-16T14:43:29.174Z,37.41
2019-04-16T14:45:59.786Z,38.03
2019-04-16T14:48:27.912Z,38.42
2019-04-16T14:50:57.171Z,38.25
2019-04-16T14:53:34.275Z,37.47
2019-04-16T14:56:25.682Z,37.33
2019-04-16T14:59:03.432Z,37.49
2019-04-16T15:01:57.414Z,38.12
2019-04-16T15:04:32.243Z,38.79
2019-04-16T15:07:19.122Z,38.88
2019-04-16T15:10:13.421Z,39.01
2019-04-16T15:12:50.239Z,40.14
2019-04-16T15:15:23.669Z,40.35
2019-04-16T15:17:59.922Z,40.58
2019-04-16T15:20:51.401Z,40.61
2019-04-16T15:24:01.361Z,40.51
2019-04-16T15:26:54.210Z,40.35
2019-04-16T15:29:39.040Z,39.05
2019-04-16T15:32:27.242Z,39.57
2019-04-16T15:34:56.992Z,39.48
2019-04-16T15:37:48.252Z,39.46
2019-04-16T15:40:40.314Z,39.49
2019-04-16T15:43:27.408Z,38.50
2019-04-16T15:46:26.234Z,37.64
2019-04-16T15:49:11.965Z,36.89
2019-04-16T15:51:56.939Z,36.79
2019-04-16T15:54:43.585Z,35.93
2019-04-16T15:57:31.923Z,35.02
2019-04-16T16:00:09.399Z,33.14
2019-04-16T16:03:09.658Z,33.14
2019-04-16T16:05:53.086Z,31.93
2019-04-16T16:08:36.313Z,32.02
2019-04-16T16:11:09.467Z,31.92
2019-04-16T16:13:38.847Z,31.77
2019-04-16T16:16:10.453Z,31.05
2019-04-16T16:18:39.819Z,30.13
2019-04-16T16:21:09.163Z,29.17
2019-04-16T16:23:38.511Z,28.56
2019-04-16T16:26:07.782Z,28.61
2019-04-16T16:28:37.253Z,28.34
2019-04-16T16:31:06.671Z,28.53
2019-04-16T16:33:35.977Z,28.52
2019-04-16T16:36:05.291Z,28.48
2019-04-16T16:38:34.707Z,28.77
2019-04-16T16:41:03.981Z,29.02
2019-04-16T16:43:33.329Z,28.77
2019-04-16T16:46:08.780Z,28.09
2019-04-16T16:48:38.534Z,27.66
2019-04-16T16:51:07.889Z,27.03
2019-04-16T16:54:02.272Z,26.19
2019-04-16T16:57:08.877Z,25.91
2019-04-16T16:59:58.300Z,25.44
2019-04-16T17:02:43.704Z,24.63
2019-04-16T17:05:17.474Z,24.21
2019-04-16T17:07:46.761Z,23.82
2019-04-16T17:10:16.081Z,23.50
2019-04-16T17:12:45.537Z,23.05
2019-04-16T17:15:15.119Z,22.02
2019-04-16T17:17:44.513Z,21.08
2019-04-16T17:20:13.839Z,20.68
2019-04-16T17:22:43.201Z,20.69
2019-04-16T17:25:12.570Z,20.74
2019-04-16T17:27:51.056Z,20.75
2019-04-16T17:30:13.720Z,20.49
2019-04-16T17:32:43.060Z,20.30
2019-04-16T17:35:15.404Z,20.02
2019-04-16T17:37:43.673Z,19.58
2019-04-16T17:40:29.272Z,19.10
2019-04-16T17:43:02.849Z,18.72
2019-04-16T17:45:46.247Z,18.31
2019-04-16T17:48:43.393Z,17.88
2019-04-16T17:51:26.483Z,17.35
2019-04-16T17:54:14.669Z,16.82
2019-04-16T17:57:01.570Z,16.40
2019-04-16T17:59:43.242Z,15.99
2019-04-16T18:02:40.050Z,15.59
2019-04-16T18:05:28.330Z,15.28
2019-04-16T18:08:19.431Z,15.03
2019-04-16T18:11:10.849Z,14.77
2019-04-16T18:14:10.451Z,14.45
2019-04-16T18:16:41.307Z,14.18
2019-04-16T18:19:18.190Z,13.99
2019-04-16T18:21:54.526Z,13.78
2019-04-16T18:24:41.501Z,13.55
2019-04-16T18:27:25.541Z,13.38
2019-04-16T18:30:13.435Z,13.20
2019-04-16T18:33:07.236Z,13.02
2019-04-16T18:35:40.672Z,12.87
2019-04-16T18:38:15.858Z,12.67
2019-04-16T18:40:49.679Z,12.55
2019-04-16T18:43:47.231Z,12.47
2019-04-16T18:46:30.134Z,12.32
2019-04-16T18:49:07.547Z,12.23
2019-04-16T18:51:36.914Z,12.33
2019-04-16T18:54:06.409Z,12.38
2019-04-16T18:56:35.979Z,12.34
2019-04-16T18:59:05.718Z,12.39
2019-04-16T19:01:35.746Z,12.40
2019-04-16T19:04:05.760Z,12.32
2019-04-16T19:06:35.680Z,12.19
2019-04-16T19:09:07.234Z,12.08
2019-04-16T19:11:36.996Z,11.97
2019-04-16T19:14:09.766Z,11.88
2019-04-16T19:16:38.078Z,11.86
2019-04-16T19:19:07.821Z,11.92
2019-04-16T19:21:37.427Z,11.83
2019-04-16T19:24:07.029Z,11.65
2019-04-16T19:26:36.786Z,11.41
2019-04-16T19:29:13.318Z,11.20
2019-04-16T19:31:40.281Z,11.05
2019-04-16T19:34:10.691Z,10.92
2019-04-16T19:36:42.662Z,10.84
2019-04-16T19:39:15.178Z,10.78
2019-04-16T19:41:43.890Z,10.75
2019-04-16T19:44:13.619Z,10.64
2019-04-16T19:46:45.988Z,10.54
2019-04-16T19:49:14.939Z,10.42
2019-04-16T19:51:44.711Z,10.30
2019-04-16T19:54:14.399Z,10.18
2019-04-16T19:56:43.993Z,10.17
2019-04-16T19:59:13.600Z,10.20
2019-04-16T20:01:43.399Z,10.25
2019-04-16T20:04:13.139Z,10.23
2019-04-16T20:06:44.976Z,10.26
2019-04-16T20:09:14.633Z,10.25
2019-04-16T20:11:44.923Z,10.26
2019-04-16T20:14:14.454Z,10.21
2019-04-16T20:16:46.646Z,10.08
2019-04-16T20:19:16.202Z,9.89
2019-04-16T20:21:45.859Z,9.71
2019-04-16T20:24:15.122Z,9.58
2019-04-16T20:26:48.937Z,9.66
2019-04-16T20:29:18.472Z,10.09
2019-04-16T20:31:47.817Z,10.39
2019-04-16T20:34:18.193Z,10.38
2019-04-16T20:36:47.778Z,10.21
2019-04-16T20:39:17.062Z,10.04
2019-04-16T20:41:52.724Z,10.05
2019-04-16T20:44:19.187Z,10.15
2019-04-16T20:46:48.516Z,10.06
2019-04-16T20:49:17.772Z,9.88
2019-04-16T20:51:47.133Z,9.70
2019-04-16T20:54:16.332Z,9.50
2019-04-16T20:56:45.607Z,9.38
2019-04-16T20:59:14.887Z,9.25
2019-04-16T21:01:46.061Z,9.08
2019-04-16T21:04:15.389Z,8.96
2019-04-16T21:06:44.678Z,8.83
2019-04-16T21:09:14.018Z,8.66
2019-04-16T21:11:43.403Z,8.48
2019-04-16T21:14:12.995Z,8.27
2019-04-16T21:16:42.302Z,8.09
2019-04-16T21:19:22.837Z,7.99
2019-04-16T21:21:42.813Z,7.90
2019-04-16T21:24:13.692Z,7.83
2019-04-16T21:26:43.172Z,7.80
2019-04-16T21:29:26.138Z,7.78
2019-04-16T21:31:59.385Z,7.78
2019-04-16T21:34:40.980Z,7.73
2019-04-16T21:37:41.413Z,7.67
2019-04-16T21:40:10.894Z,7.58
2019-04-16T21:42:40.201Z,7.50
2019-04-16T21:45:09.991Z,7.40
2019-04-16T21:47:39.355Z,7.31
2019-04-16T21:50:09.174Z,7.25
2019-04-16T21:52:38.535Z,7.21
2019-04-16T21:55:08.271Z,7.16
2019-04-16T21:57:37.557Z,7.16
2019-04-16T22:00:09.773Z,7.12
2019-04-16T22:02:39.799Z,7.12
2019-04-16T22:05:10.393Z,7.13
2019-04-16T22:07:39.634Z,7.11
2019-04-16T22:10:09.071Z,7.09
2019-04-16T22:12:38.385Z,7.05
2019-04-16T22:15:08.149Z,7.06
2019-04-16T22:17:37.474Z,7.05
2019-04-16T22:20:07.401Z,7.04
2019-04-16T22:22:36.651Z,7.03
2019-04-16T22:25:06.247Z,7.01
2019-04-16T22:27:36.868Z,7.00
2019-04-16T22:30:06.843Z,6.99
2019-04-16T22:32:36.184Z,6.96
2019-04-16T22:35:05.594Z,6.94
2019-04-16T22:37:35.038Z,6.93
2019-04-16T22:40:32.538Z,6.92
2019-04-16T22:43:20.834Z,6.88
2019-04-16T22:45:57.623Z,6.86
2019-04-16T22:48:26.913Z,6.83
2019-04-16T22:50:56.401Z,6.80
2019-04-16T22:53:25.762Z,6.79
2019-04-16T22:55:56.669Z,6.76
2019-04-16T22:58:46.204Z,6.74
2019-04-16T23:01:15.555Z,6.71
2019-04-16T23:03:44.960Z,6.70
2019-04-16T23:06:14.282Z,6.66
2019-04-16T23:08:44.302Z,6.65
2019-04-16T23:11:15.406Z,6.62
2019-04-16T23:13:44.783Z,6.57
2019-04-16T23:16:14.128Z,6.51
2019-04-16T23:18:43.411Z,6.47
2019-04-16T23:21:12.740Z,6.43
2019-04-16T23:23:42.098Z,6.39
2019-04-16T23:26:11.342Z,6.35
2019-04-16T23:28:42.495Z,6.33
2019-04-16T23:31:11.626Z,6.34
2019-04-16T23:33:40.968Z,6.32
2019-04-16T23:36:15.029Z,6.31
2019-04-16T23:38:42.307Z,6.30
2019-04-16T23:41:15.321Z,6.30
2019-04-16T23:44:15.721Z,6.33
2019-04-16T23:47:10.513Z,6.36
2019-04-16T23:49:46.045Z,6.38
2019-04-16T23:52:24.101Z,6.40
2019-04-16T23:55:05.546Z,6.40
2019-04-16T23:57:53.577Z,6.41
